createdAt,value
2022-08-10T00:00:20.341Z,71.53
2022-08-10T00:01:20.488Z,71.84
2022-08-10T00:02:20.319Z,71.64
2022-08-10T00:03:20.299Z,71.33
2022-08-10T00:04:21.314Z,71.44
2022-08-10T00:05:20.299Z,71.64
2022-08-10T00:06:20.262Z,71.64
2022-08-10T00:07:20.259Z,71.44
2022-08-10T00:08:20.667Z,71.64
2022-08-10T00:09:20.228Z,71.44
2022-08-10T00:10:20.221Z,71.73
2022-08-10T00:11:20.198Z,72.08
2022-08-10T00:12:20.193Z,72.17
2022-08-10T00:13:20.178Z,72.08
2022-08-10T00:14:20.164Z,72.08
2022-08-10T00:15:52.301Z,72.58
2022-08-10T00:16:21.132Z,72.28
2022-08-10T00:17:20.133Z,71.26
2022-08-10T00:18:34.324Z,71.26
2022-08-10T00:19:21.103Z,72.17
2022-08-10T00:20:20.075Z,71.47
2022-08-10T00:21:20.079Z,72.38
2022-08-10T00:22:20.056Z,72.58
2022-08-10T00:23:20.044Z,72.28
2022-08-10T00:24:20.037Z,72.48
2022-08-10T00:25:20.024Z,71.77
2022-08-10T00:26:20.007Z,71.88
2022-08-10T00:28:01.555Z,71.57
2022-08-10T00:28:20.976Z,71.70
2022-08-10T00:29:19.977Z,72.21
2022-08-10T00:30:19.947Z,72.72
2022-08-10T00:31:19.940Z,72.21
2022-08-10T00:32:19.929Z,73.02
2022-08-10T00:33:19.914Z,73.43
2022-08-10T00:34:19.898Z,73.43
2022-08-10T00:35:19.889Z,73.22
2022-08-10T00:36:19.871Z,72.92
2022-08-10T00:37:19.870Z,73.02
2022-08-10T00:38:19.862Z,73.02
2022-08-10T00:39:19.874Z,73.02
2022-08-10T00:40:19.820Z,73.12
2022-08-10T00:41:20.812Z,73.12
2022-08-10T00:42:19.802Z,73.02
2022-08-10T00:43:23.806Z,73.02
2022-08-10T00:44:19.771Z,73.12
2022-08-10T00:45:19.765Z,73.22
2022-08-10T00:46:19.744Z,72.92
2022-08-10T00:47:35.649Z,72.81
2022-08-10T00:48:20.712Z,72.72
2022-08-10T00:49:19.713Z,72.81
2022-08-10T00:50:19.697Z,72.72
2022-08-10T00:51:19.675Z,72.31
2022-08-10T00:52:19.674Z,73.02
2022-08-10T00:53:19.656Z,73.22
2022-08-10T00:54:24.041Z,73.12
2022-08-10T00:55:19.633Z,72.92
2022-08-10T00:57:14.094Z,72.72
2022-08-10T00:57:20.620Z,72.85
2022-08-10T00:58:19.585Z,72.65
2022-08-10T00:59:19.588Z,73.25
2022-08-10T01:00:19.556Z,73.36
2022-08-10T01:02:07.534Z,73.36
2022-08-10T01:02:20.599Z,73.76
2022-08-10T01:04:36.536Z,73.97
2022-08-10T01:04:57.845Z,74.00
2022-08-10T01:05:20.764Z,73.90
2022-08-10T01:06:19.489Z,73.70
2022-08-10T01:07:19.489Z,74.51
2022-08-10T01:08:19.458Z,74.91
2022-08-10T01:09:19.450Z,74.51
2022-08-10T01:10:19.429Z,74.00
2022-08-10T01:12:37.518Z,75.32
2022-08-10T01:12:38.631Z,75.52
2022-08-10T01:13:21.347Z,75.76
2022-08-10T01:14:19.381Z,75.46
2022-08-10T01:15:19.378Z,76.17
2022-08-10T01:16:19.351Z,76.87
2022-08-10T01:17:19.352Z,76.47
2022-08-10T01:18:19.322Z,75.86
2022-08-10T01:19:19.322Z,75.46
2022-08-10T01:20:30.173Z,75.15
2022-08-10T01:21:20.297Z,75.25
2022-08-10T01:22:19.285Z,75.46
2022-08-10T01:23:19.264Z,75.56
2022-08-10T01:24:25.050Z,75.66
2022-08-10T01:25:21.203Z,75.05
2022-08-10T01:26:30.822Z,76.40
2022-08-10T01:27:20.225Z,76.71
2022-08-10T01:28:20.196Z,76.71
2022-08-10T01:29:19.187Z,76.10
2022-08-10T01:30:19.176Z,75.70
2022-08-10T01:31:19.166Z,76.31
2022-08-10T01:32:19.156Z,75.49
2022-08-10T01:33:19.137Z,74.98
2022-08-10T01:34:20.118Z,75.49
2022-08-10T01:35:19.108Z,76.40
2022-08-10T01:36:19.099Z,76.81
2022-08-10T01:37:19.094Z,77.62
2022-08-10T01:38:19.069Z,77.42
2022-08-10T01:39:19.103Z,77.12
2022-08-10T01:40:19.046Z,77.01
2022-08-10T01:41:19.030Z,76.85
2022-08-10T01:42:19.030Z,76.51
2022-08-10T01:43:19.009Z,76.61
2022-08-10T01:44:20.107Z,76.71
2022-08-10T01:46:28.182Z,77.22
2022-08-10T01:47:28.173Z,76.71
2022-08-10T01:48:28.157Z,76.81
2022-08-10T01:49:28.143Z,76.91
2022-08-10T01:50:28.134Z,76.71
2022-08-10T01:51:28.114Z,76.71
2022-08-10T01:52:28.159Z,77.62
2022-08-10T01:53:28.084Z,77.83
2022-08-10T01:54:29.077Z,78.47
2022-08-10T01:55:28.068Z,77.93
2022-08-10T01:56:28.054Z,77.66
2022-08-10T01:57:28.046Z,77.12
2022-08-10T01:58:28.036Z,77.56
2022-08-10T01:59:28.006Z,76.81
2022-08-10T02:00:27.999Z,77.72
2022-08-10T02:01:28.020Z,77.01
2022-08-10T02:02:27.980Z,77.01
2022-08-10T02:03:27.958Z,76.95
2022-08-10T02:04:27.948Z,77.01
2022-08-10T02:05:27.929Z,76.71
2022-08-10T02:06:27.918Z,77.52
2022-08-10T02:07:27.911Z,77.01
2022-08-10T02:08:27.899Z,76.71
2022-08-10T02:09:27.881Z,77.52
2022-08-10T02:10:27.869Z,77.01
2022-08-10T02:11:27.850Z,76.81
2022-08-10T02:12:28.853Z,76.71
2022-08-10T02:13:27.821Z,77.22
2022-08-10T02:14:33.501Z,76.61
2022-08-10T02:15:28.801Z,77.12
2022-08-10T02:16:27.786Z,76.40
2022-08-10T02:17:57.821Z,76.00
2022-08-10T02:18:28.762Z,75.70
2022-08-10T02:19:27.744Z,76.78
2022-08-10T02:20:31.467Z,76.47
2022-08-10T02:21:27.725Z,76.57
2022-08-10T02:22:38.133Z,76.27
2022-08-10T02:23:28.693Z,77.18
2022-08-10T02:24:27.684Z,77.08
2022-08-10T02:25:40.020Z,76.98
2022-08-10T02:26:28.655Z,77.48
2022-08-10T02:27:27.654Z,77.28
2022-08-10T02:28:30.975Z,76.37
2022-08-10T02:29:27.618Z,77.48
2022-08-10T02:30:27.606Z,76.98
2022-08-10T02:31:27.586Z,76.27
2022-08-10T02:32:52.779Z,76.67
2022-08-10T02:33:28.566Z,76.87
2022-08-10T02:34:27.556Z,76.47
2022-08-10T02:35:27.536Z,77.08
2022-08-10T02:36:27.530Z,76.98
2022-08-10T02:37:27.517Z,77.59
2022-08-10T02:38:59.092Z,78.19
2022-08-10T02:39:28.547Z,78.03
2022-08-10T02:45:02.450Z,77.59
2022-08-10T02:45:13.654Z,77.89
2022-08-10T02:45:19.857Z,76.81
2022-08-10T02:45:19.996Z,77.32
2022-08-10T02:45:26.892Z,77.62
2022-08-10T02:45:30.921Z,76.67
2022-08-10T02:46:27.401Z,77.42
2022-08-10T02:47:27.395Z,78.13
2022-08-10T02:48:27.372Z,78.53
2022-08-10T02:49:27.351Z,78.03
2022-08-10T02:50:27.341Z,77.42
2022-08-10T02:52:06.234Z,77.62
2022-08-10T02:52:28.330Z,77.72
2022-08-10T02:53:54.955Z,77.22
2022-08-10T02:54:28.302Z,77.01
2022-08-10T02:55:29.095Z,77.12
2022-08-10T02:56:28.264Z,76.67
2022-08-10T02:57:27.253Z,77.01
2022-08-10T02:58:27.244Z,76.78
2022-08-10T02:59:27.226Z,77.18
2022-08-10T03:00:28.218Z,76.78
2022-08-10T03:01:27.245Z,76.78
2022-08-10T03:02:27.197Z,77.18
2022-08-10T03:03:27.177Z,76.78
2022-08-10T03:04:55.378Z,76.87
2022-08-10T03:05:28.147Z,77.38
2022-08-10T03:06:27.136Z,76.87
2022-08-10T03:07:42.926Z,76.78
2022-08-10T03:08:28.108Z,76.67
2022-08-10T03:09:27.096Z,76.67
2022-08-10T03:10:27.077Z,76.98
2022-08-10T03:12:37.211Z,77.18
2022-08-10T03:12:47.065Z,77.08
2022-08-10T03:13:28.038Z,76.78
2022-08-10T03:14:27.029Z,76.47
2022-08-10T03:15:27.019Z,77.18
2022-08-10T03:16:27.009Z,77.48
2022-08-10T03:17:27.990Z,77.22
2022-08-10T03:18:26.980Z,77.59
2022-08-10T03:20:33.505Z,77.72
2022-08-10T03:20:36.980Z,77.32
2022-08-10T03:21:27.941Z,76.91
2022-08-10T03:22:27.039Z,78.44
2022-08-10T03:23:26.922Z,77.42
2022-08-10T03:24:32.661Z,77.83
2022-08-10T03:25:27.882Z,77.79
2022-08-10T03:26:26.872Z,76.57
2022-08-10T03:27:26.872Z,78.03
2022-08-10T03:28:26.846Z,78.09
2022-08-10T03:29:26.831Z,77.52
2022-08-10T03:30:32.582Z,77.93
2022-08-10T03:31:27.803Z,77.52
2022-08-10T03:32:26.869Z,78.03
2022-08-10T03:33:26.775Z,77.83
2022-08-10T03:34:32.965Z,76.71
2022-08-10T03:35:27.755Z,76.61
2022-08-10T03:36:43.773Z,76.51
2022-08-10T03:37:27.737Z,76.61
2022-08-10T03:38:26.716Z,77.01
2022-08-10T03:39:26.743Z,76.71
2022-08-10T03:40:44.777Z,76.51
2022-08-10T03:41:29.647Z,76.51
2022-08-10T03:42:26.723Z,77.01
2022-08-10T03:43:27.587Z,76.91
2022-08-10T03:44:26.637Z,77.32
2022-08-10T03:45:26.618Z,76.61
2022-08-10T03:46:27.608Z,77.12
2022-08-10T03:47:26.598Z,77.56
2022-08-10T03:48:45.247Z,77.36
2022-08-10T03:49:27.569Z,77.05
2022-08-10T03:50:45.410Z,77.45
2022-08-10T03:51:27.540Z,77.97
2022-08-10T03:52:26.596Z,77.86
2022-08-10T03:54:04.871Z,78.06
2022-08-10T03:54:27.501Z,78.17
2022-08-10T03:56:26.607Z,79.08
2022-08-10T03:56:31.931Z,78.88
2022-08-10T03:57:26.461Z,78.37
2022-08-10T03:58:26.449Z,78.17
2022-08-10T03:59:26.432Z,78.06
2022-08-10T04:00:26.422Z,78.98
2022-08-10T04:02:42.073Z,78.91
2022-08-10T04:02:43.820Z,79.12
2022-08-10T04:03:29.198Z,77.90
2022-08-10T04:04:26.421Z,78.61
2022-08-10T04:05:26.354Z,78.81
2022-08-10T04:06:27.354Z,79.02
2022-08-10T04:07:26.323Z,78.81
2022-08-10T04:08:26.325Z,79.63
2022-08-10T04:09:43.359Z,79.32
2022-08-10T04:10:27.295Z,79.83
2022-08-10T04:11:26.285Z,80.44
2022-08-10T04:12:26.269Z,80.03
2022-08-10T04:13:26.245Z,79.83
2022-08-10T04:14:48.806Z,79.83
2022-08-10T04:15:27.227Z,80.03
2022-08-10T04:16:26.222Z,79.52
2022-08-10T04:18:04.088Z,79.22
2022-08-10T04:18:27.189Z,79.52
2022-08-10T04:19:26.167Z,79.52
2022-08-10T04:20:26.161Z,78.61
2022-08-10T04:21:26.155Z,79.32
2022-08-10T04:22:26.129Z,79.42
2022-08-10T04:23:27.079Z,79.22
2022-08-10T04:24:29.899Z,78.81
2022-08-10T04:25:26.099Z,78.81
2022-08-10T04:26:26.090Z,78.78
2022-08-10T04:27:26.069Z,78.98
2022-08-10T04:28:26.050Z,78.98
2022-08-10T04:29:26.051Z,78.98
2022-08-10T04:30:27.825Z,79.08
2022-08-10T04:31:26.028Z,80.60
2022-08-10T04:32:26.006Z,81.52
2022-08-10T04:33:25.992Z,81.82
2022-08-10T04:34:25.972Z,81.72
2022-08-10T04:35:25.962Z,81.62
2022-08-10T04:36:25.952Z,81.62
2022-08-10T04:37:25.935Z,81.31
2022-08-10T04:38:25.924Z,80.91
2022-08-10T04:39:25.936Z,79.79
2022-08-10T04:40:30.437Z,79.18
2022-08-10T04:41:26.898Z,77.97
2022-08-10T04:42:25.922Z,78.03
2022-08-10T04:43:25.854Z,78.64
2022-08-10T04:44:25.843Z,78.74
2022-08-10T04:45:50.240Z,78.94
2022-08-10T04:46:56.256Z,79.65
2022-08-10T04:48:00.585Z,78.44
2022-08-10T04:48:40.008Z,78.94
2022-08-10T04:49:54.181Z,77.93
2022-08-10T04:50:26.763Z,77.72
2022-08-10T04:51:25.765Z,77.62
2022-08-10T04:52:25.733Z,78.33
2022-08-10T04:53:25.729Z,77.72
2022-08-10T04:54:25.708Z,78.23
2022-08-10T04:55:25.719Z,77.93
2022-08-10T04:56:31.185Z,78.03
2022-08-10T04:57:26.678Z,77.59
2022-08-10T04:58:25.655Z,78.50
2022-08-10T04:59:25.653Z,77.89
2022-08-10T05:00:25.677Z,79.11
2022-08-10T05:01:25.667Z,79.61
2022-08-10T05:02:31.282Z,78.19
2022-08-10T05:03:26.590Z,78.26
2022-08-10T05:04:33.794Z,78.26
2022-08-10T05:05:26.579Z,78.66
2022-08-10T05:06:25.551Z,78.46
2022-08-10T05:07:25.543Z,78.42
2022-08-10T05:08:25.522Z,78.22
2022-08-10T05:09:25.515Z,77.31
2022-08-10T05:10:25.503Z,78.12
2022-08-10T05:11:25.493Z,78.02
2022-08-10T05:12:25.475Z,78.12
2022-08-10T05:13:25.465Z,78.53
2022-08-10T05:14:25.452Z,77.11
2022-08-10T05:15:25.444Z,77.78
2022-08-10T05:16:32.446Z,78.08
2022-08-10T05:17:26.419Z,78.08
2022-08-10T05:18:25.398Z,78.28
2022-08-10T05:19:25.387Z,78.49
2022-08-10T05:20:26.376Z,78.08
2022-08-10T05:22:04.015Z,76.67
2022-08-10T05:22:26.484Z,76.53
2022-08-10T05:23:25.338Z,76.46
2022-08-10T05:24:25.317Z,76.77
2022-08-10T05:25:25.310Z,77.75
2022-08-10T05:26:25.287Z,76.43
2022-08-10T05:27:25.277Z,77.64
2022-08-10T05:28:27.835Z,77.95
2022-08-10T05:29:26.252Z,77.84
2022-08-10T05:30:25.242Z,77.95
2022-08-10T05:31:25.231Z,77.61
2022-08-10T05:32:25.209Z,77.81
2022-08-10T05:33:25.202Z,77.10
2022-08-10T05:34:25.180Z,77.40
2022-08-10T05:35:25.184Z,76.79
2022-08-10T05:36:25.162Z,77.40
2022-08-10T05:38:12.444Z,77.17
2022-08-10T05:38:26.131Z,77.67
2022-08-10T05:39:30.373Z,76.76
2022-08-10T05:40:26.112Z,76.15
2022-08-10T05:41:25.100Z,76.86
2022-08-10T05:42:25.085Z,76.97
2022-08-10T05:43:25.074Z,76.42
2022-08-10T05:44:25.053Z,76.26
2022-08-10T05:45:25.062Z,76.12
2022-08-10T05:46:25.024Z,75.81
2022-08-10T05:47:25.014Z,76.52
2022-08-10T05:48:55.463Z,76.52
2022-08-10T05:49:25.985Z,76.22
2022-08-10T05:50:24.975Z,75.92
2022-08-10T05:51:24.966Z,75.48
2022-08-10T05:52:24.945Z,75.48
2022-08-10T05:54:01.940Z,75.57
2022-08-10T05:54:25.917Z,75.17
2022-08-10T05:55:24.921Z,75.27
2022-08-10T05:56:24.888Z,75.04
2022-08-10T05:57:24.883Z,75.64
2022-08-10T05:58:24.874Z,75.24
2022-08-10T06:00:11.249Z,75.34
2022-08-10T06:00:36.637Z,75.54
2022-08-10T06:01:25.867Z,75.74
2022-08-10T06:02:30.722Z,75.64
2022-08-10T06:03:25.808Z,75.84
2022-08-10T06:04:24.799Z,75.81
2022-08-10T06:05:24.779Z,75.60
2022-08-10T06:06:25.119Z,75.31
2022-08-10T06:07:24.751Z,75.60
2022-08-10T06:08:24.913Z,75.60
2022-08-10T06:09:24.743Z,75.37
2022-08-10T06:10:31.292Z,75.27
2022-08-10T06:12:27.948Z,75.07
2022-08-10T06:12:29.312Z,75.16
2022-08-10T06:13:29.950Z,74.46
2022-08-10T06:14:29.092Z,74.46
2022-08-10T06:15:50.955Z,74.66
2022-08-10T06:16:25.794Z,74.52
2022-08-10T06:17:24.624Z,74.83
2022-08-10T06:18:24.604Z,74.22
2022-08-10T06:19:24.604Z,74.22
2022-08-10T06:20:24.660Z,74.29
2022-08-10T06:21:24.567Z,74.08
2022-08-10T06:22:24.553Z,73.88
2022-08-10T06:23:24.545Z,73.48
2022-08-10T06:24:25.573Z,73.88
2022-08-10T06:26:11.888Z,73.55
2022-08-10T06:26:25.491Z,73.14
2022-08-10T06:27:34.412Z,73.05
2022-08-10T06:28:25.467Z,72.34
2022-08-10T06:29:24.467Z,71.80
2022-08-10T06:30:24.451Z,72.31
2022-08-10T06:31:24.439Z,72.20
2022-08-10T06:32:24.418Z,71.67
2022-08-10T06:33:24.410Z,71.87
2022-08-10T06:34:24.399Z,71.77
2022-08-10T06:35:24.379Z,71.16
2022-08-10T06:36:24.368Z,71.56
2022-08-10T06:37:25.360Z,71.83
2022-08-10T06:38:24.340Z,71.33
2022-08-10T06:39:39.844Z,71.03
2022-08-10T06:40:25.425Z,70.93
2022-08-10T06:41:24.301Z,70.93
2022-08-10T06:42:25.281Z,70.23
2022-08-10T06:43:24.282Z,71.43
2022-08-10T06:44:24.269Z,71.50
2022-08-10T06:45:24.253Z,71.00
2022-08-10T06:46:24.233Z,72.10
2022-08-10T06:47:24.225Z,70.70
2022-08-10T06:48:24.214Z,69.89
2022-08-10T06:49:24.204Z,70.50
2022-08-10T06:50:45.026Z,70.76
2022-08-10T06:51:25.164Z,70.66
2022-08-10T06:52:24.155Z,69.56
2022-08-10T06:53:24.145Z,69.76
2022-08-10T06:54:25.135Z,69.85
2022-08-10T06:55:39.913Z,70.12
2022-08-10T06:56:36.745Z,70.12
2022-08-10T06:57:25.087Z,69.12
2022-08-10T06:58:26.969Z,67.21
2022-08-10T06:59:24.084Z,68.32
2022-08-10T07:00:24.101Z,69.39
2022-08-10T07:01:25.099Z,68.08
2022-08-10T07:02:24.019Z,68.38
2022-08-10T07:03:24.008Z,68.49
2022-08-10T07:04:32.663Z,67.88
2022-08-10T07:05:24.979Z,66.38
2022-08-10T07:06:23.970Z,67.35
2022-08-10T07:07:23.960Z,66.95
2022-08-10T07:08:24.890Z,67.75
2022-08-10T07:09:23.940Z,66.55
2022-08-10T07:10:23.910Z,66.64
2022-08-10T07:11:23.904Z,67.45
2022-08-10T07:12:23.893Z,67.45
2022-08-10T07:14:14.810Z,65.24
2022-08-10T07:14:24.863Z,66.44
2022-08-10T07:15:23.843Z,66.44
2022-08-10T07:16:24.833Z,67.11
2022-08-10T07:17:23.828Z,66.11
2022-08-10T07:18:23.804Z,65.91
2022-08-10T07:19:23.823Z,66.01
2022-08-10T07:20:23.774Z,65.51
2022-08-10T07:21:23.764Z,64.91
2022-08-10T07:23:01.374Z,65.91
2022-08-10T07:23:58.698Z,64.01
2022-08-10T07:24:24.727Z,63.17
2022-08-10T07:25:23.707Z,62.97
2022-08-10T07:26:23.697Z,62.67
2022-08-10T07:27:23.688Z,62.77
2022-08-10T07:28:23.668Z,63.84
2022-08-10T07:29:52.974Z,64.54
2022-08-10T07:30:24.640Z,64.04
2022-08-10T07:31:36.048Z,63.92
2022-08-10T07:32:24.610Z,62.01
2022-08-10T07:33:23.609Z,62.11
2022-08-10T07:34:29.195Z,62.21
2022-08-10T07:35:24.582Z,63.42
2022-08-10T07:36:23.561Z,63.92
2022-08-10T07:37:23.551Z,63.34
2022-08-10T07:38:23.531Z,63.21
2022-08-10T07:40:04.048Z,63.01
2022-08-10T07:40:24.551Z,61.51
2022-08-10T07:41:23.500Z,62.21
2022-08-10T07:42:23.481Z,62.11
2022-08-10T07:43:23.476Z,61.28
2022-08-10T07:44:23.464Z,60.68
2022-08-10T07:45:24.400Z,61.48
2022-08-10T07:46:23.426Z,61.45
2022-08-10T07:47:53.303Z,60.75
2022-08-10T07:48:24.394Z,60.15
2022-08-10T07:49:23.395Z,60.75
2022-08-10T07:50:23.375Z,60.35
2022-08-10T07:51:23.365Z,61.05
2022-08-10T07:52:23.346Z,61.55
2022-08-10T07:53:23.342Z,61.92
2022-08-10T07:54:23.327Z,60.62
2022-08-10T07:56:05.007Z,60.52
2022-08-10T07:56:47.420Z,59.82
2022-08-10T07:57:30.749Z,58.89
2022-08-10T07:58:24.269Z,59.09
2022-08-10T07:59:23.269Z,58.69
2022-08-10T08:00:23.240Z,58.67
2022-08-10T08:01:23.336Z,58.26
2022-08-10T08:02:23.211Z,58.04
2022-08-10T08:03:23.210Z,57.44
2022-08-10T08:04:23.199Z,57.14
2022-08-10T08:05:38.536Z,57.34
2022-08-10T08:06:24.158Z,58.84
2022-08-10T08:07:23.151Z,58.04
2022-08-10T08:08:23.142Z,57.64
2022-08-10T08:09:23.131Z,57.21
2022-08-10T08:10:23.103Z,58.31
2022-08-10T08:11:26.342Z,58.01
2022-08-10T08:12:23.083Z,57.41
2022-08-10T08:13:23.094Z,58.08
2022-08-10T08:14:23.064Z,57.48
2022-08-10T08:16:17.533Z,57.78
2022-08-10T08:16:24.027Z,57.78
2022-08-10T08:17:23.036Z,57.26
2022-08-10T08:18:25.453Z,57.26
2022-08-10T08:19:27.716Z,58.36
2022-08-10T08:20:24.007Z,57.33
2022-08-10T08:24:08.453Z,57.23
2022-08-10T08:24:10.317Z,55.41
2022-08-10T08:24:11.139Z,56.38
2022-08-10T08:24:32.655Z,55.55
2022-08-10T08:25:23.937Z,54.26
2022-08-10T08:26:22.910Z,54.56
2022-08-10T08:27:22.889Z,53.39
2022-08-10T08:28:22.878Z,55.08
2022-08-10T08:29:22.859Z,55.28
2022-08-10T08:30:26.992Z,54.88
2022-08-10T08:31:23.830Z,53.69
2022-08-10T08:32:22.819Z,54.38
2022-08-10T08:33:42.251Z,53.59
2022-08-10T08:34:23.783Z,53.78
2022-08-10T08:35:22.778Z,53.99
2022-08-10T08:36:22.763Z,53.86
2022-08-10T08:38:33.168Z,53.76
2022-08-10T08:38:33.644Z,54.26
2022-08-10T08:39:23.766Z,53.04
2022-08-10T08:40:22.713Z,51.92
2022-08-10T08:41:22.695Z,51.42
2022-08-10T08:42:22.693Z,51.10
2022-08-10T08:43:22.676Z,51.10
2022-08-10T08:44:22.655Z,52.59
2022-08-10T08:45:22.646Z,52.39
2022-08-10T08:46:22.627Z,52.00
2022-08-10T08:48:02.298Z,52.91
2022-08-10T08:48:23.608Z,52.51
2022-08-10T08:50:04.494Z,51.82
2022-08-10T08:50:23.579Z,51.89
2022-08-10T08:52:06.139Z,53.78
2022-08-10T08:52:23.550Z,51.87
2022-08-10T08:53:22.902Z,51.57
2022-08-10T08:54:22.521Z,50.48
2022-08-10T08:56:04.421Z,51.47
2022-08-10T08:56:23.502Z,51.37
2022-08-10T08:57:49.297Z,52.07
2022-08-10T08:58:23.482Z,51.57
2022-08-10T08:59:22.454Z,50.88
2022-08-10T09:00:22.443Z,50.98
2022-08-10T09:01:22.483Z,50.35
2022-08-10T09:02:22.428Z,50.85
2022-08-10T09:03:26.296Z,50.65
2022-08-10T09:04:23.399Z,51.32
2022-08-10T09:05:22.386Z,49.56
2022-08-10T09:06:22.375Z,51.87
2022-08-10T09:08:00.393Z,52.99
2022-08-10T09:08:23.347Z,52.89
2022-08-10T09:09:22.329Z,52.51
2022-08-10T09:10:22.335Z,52.42
2022-08-10T09:11:22.299Z,51.05
2022-08-10T09:12:22.289Z,51.87
2022-08-10T09:13:22.278Z,52.59
2022-08-10T09:14:25.794Z,52.00
2022-08-10T09:15:40.676Z,52.79
2022-08-10T09:16:23.239Z,53.39
2022-08-10T09:17:22.221Z,53.39
2022-08-10T09:18:22.221Z,54.08
2022-08-10T09:19:35.346Z,52.97
2022-08-10T09:20:23.188Z,52.07
2022-08-10T09:21:22.173Z,52.24
2022-08-10T09:22:22.172Z,50.15
2022-08-10T09:23:22.133Z,51.79
2022-08-10T09:24:23.132Z,49.26
2022-08-10T09:25:22.114Z,52.12
2022-08-10T09:26:22.104Z,51.87
2022-08-10T09:27:22.091Z,49.57
2022-08-10T09:28:22.084Z,46.79
2022-08-10T09:29:22.066Z,45.90
2022-08-10T09:30:29.342Z,47.75
2022-08-10T09:31:23.498Z,47.53
2022-08-10T09:36:13.910Z,45.93
2022-08-10T09:36:19.324Z,47.69
2022-08-10T09:36:20.912Z,45.53
2022-08-10T09:36:22.291Z,45.90
2022-08-10T09:36:32.851Z,45.31
2022-08-10T09:37:22.969Z,47.66
2022-08-10T09:38:22.979Z,46.08
2022-08-10T09:40:12.284Z,45.79
2022-08-10T09:40:58.919Z,45.68
2022-08-10T09:41:22.954Z,45.76
2022-08-10T09:42:21.903Z,43.77
2022-08-10T09:43:25.255Z,45.74
2022-08-10T09:44:21.868Z,45.52
2022-08-10T09:45:21.852Z,44.61
2022-08-10T09:46:21.843Z,44.04
2022-08-10T09:47:21.833Z,44.04
2022-08-10T09:48:22.814Z,42.78
2022-08-10T09:49:25.870Z,41.59
2022-08-10T09:50:22.786Z,42.78
2022-08-10T09:51:44.164Z,42.46
2022-08-10T09:52:22.771Z,42.56
2022-08-10T09:53:21.746Z,43.25
2022-08-10T09:54:21.736Z,41.46
2022-08-10T09:55:21.717Z,42.54
2022-08-10T09:56:26.737Z,42.56
2022-08-10T09:57:43.516Z,43.66
2022-08-10T09:58:22.678Z,44.36
2022-08-10T10:00:00.837Z,44.93
2022-08-10T10:00:22.656Z,41.55
2022-08-10T10:01:56.379Z,41.95
2022-08-10T10:02:22.636Z,43.45
2022-08-10T10:03:25.858Z,41.89
2022-08-10T10:04:21.610Z,43.27
2022-08-10T10:05:21.591Z,43.96
2022-08-10T10:06:21.582Z,45.45
2022-08-10T10:07:21.573Z,42.38
2022-08-10T10:08:21.552Z,43.77
2022-08-10T10:09:26.656Z,42.38
2022-08-10T10:10:22.527Z,41.77
2022-08-10T10:11:21.515Z,42.14
2022-08-10T10:12:21.504Z,42.34
2022-08-10T10:13:42.254Z,44.32
2022-08-10T10:14:22.476Z,41.75
2022-08-10T10:15:24.056Z,42.66
2022-08-10T10:16:21.447Z,42.97
2022-08-10T10:17:21.437Z,43.45
2022-08-10T10:18:21.424Z,43.57
2022-08-10T10:19:21.408Z,42.30
2022-08-10T10:20:21.398Z,42.25
2022-08-10T10:21:50.040Z,43.53
2022-08-10T10:22:22.371Z,44.52
2022-08-10T10:23:21.349Z,44.64
2022-08-10T10:24:22.802Z,45.71
2022-08-10T10:25:21.507Z,42.14
2022-08-10T10:26:21.325Z,42.07
2022-08-10T10:27:21.301Z,42.64
2022-08-10T10:28:21.289Z,44.32
2022-08-10T10:29:57.512Z,42.35
2022-08-10T10:30:22.262Z,41.95
2022-08-10T10:31:21.243Z,42.22
2022-08-10T10:32:21.243Z,41.04
2022-08-10T10:33:21.214Z,41.83
2022-08-10T10:34:21.214Z,44.01
2022-08-10T10:35:21.186Z,42.60
2022-08-10T10:36:21.186Z,42.26
2022-08-10T10:37:21.176Z,44.39
2022-08-10T10:38:22.157Z,40.43
2022-08-10T10:39:24.058Z,40.39
2022-08-10T10:40:21.126Z,37.83
2022-08-10T10:41:21.108Z,38.51
2022-08-10T10:42:44.285Z,37.81
2022-08-10T10:43:22.088Z,37.30
2022-08-10T10:44:21.079Z,36.22
2022-08-10T10:45:21.060Z,36.63
2022-08-10T10:46:23.028Z,37.73
2022-08-10T10:47:21.040Z,40.66
2022-08-10T10:48:23.965Z,40.96
2022-08-10T10:49:22.014Z,37.97
2022-08-10T10:50:21.006Z,39.92
2022-08-10T10:51:20.982Z,37.63
2022-08-10T10:52:20.987Z,37.54
2022-08-10T10:53:21.904Z,37.52
2022-08-10T10:54:20.945Z,39.68
2022-08-10T10:55:20.933Z,36.07
2022-08-10T10:56:20.923Z,36.77
2022-08-10T10:57:20.904Z,36.20
2022-08-10T10:58:24.186Z,36.79
2022-08-10T10:59:55.641Z,37.79
2022-08-10T11:00:21.868Z,38.09
2022-08-10T11:01:20.937Z,36.40
2022-08-10T11:02:20.837Z,36.99
2022-08-10T11:03:20.837Z,37.08
2022-08-10T11:04:20.827Z,36.80
2022-08-10T11:05:20.821Z,36.63
2022-08-10T11:06:20.799Z,36.94
2022-08-10T11:07:21.856Z,36.55
2022-08-10T11:08:20.759Z,38.04
2022-08-10T11:10:04.900Z,38.02
2022-08-10T11:10:33.619Z,39.39
2022-08-10T11:12:01.776Z,38.97
2022-08-10T11:12:25.411Z,38.70
2022-08-10T11:14:25.831Z,38.30
2022-08-10T11:14:26.589Z,39.39
2022-08-10T11:15:21.664Z,36.94
2022-08-10T11:16:20.674Z,37.93
2022-08-10T11:17:20.646Z,39.07
2022-08-10T11:18:21.594Z,38.07
2022-08-10T11:19:20.615Z,37.07
2022-08-10T11:20:20.606Z,37.26
2022-08-10T11:21:20.605Z,35.92
2022-08-10T11:22:20.586Z,36.33
2022-08-10T11:23:21.507Z,36.92
2022-08-10T11:24:48.539Z,37.32
2022-08-10T11:25:21.538Z,38.10
2022-08-10T11:26:20.538Z,36.61
2022-08-10T11:27:22.323Z,35.92
2022-08-10T11:28:20.501Z,36.40
2022-08-10T11:29:20.490Z,37.30
2022-08-10T11:30:20.472Z,35.43
2022-08-10T11:31:20.471Z,36.30
2022-08-10T11:32:21.551Z,35.41
2022-08-10T11:33:32.471Z,35.33
2022-08-10T11:34:47.474Z,35.51
2022-08-10T11:35:21.423Z,37.77
2022-08-10T11:36:20.402Z,36.49
2022-08-10T11:37:20.387Z,37.49
2022-08-10T11:38:34.992Z,38.18
2022-08-10T11:39:21.424Z,37.69
2022-08-10T11:40:20.355Z,38.26
2022-08-10T11:42:05.725Z,34.64
2022-08-10T11:42:31.612Z,35.23
2022-08-10T11:43:21.306Z,36.90
2022-08-10T11:44:20.297Z,36.20
2022-08-10T11:45:20.287Z,36.28
2022-08-10T11:46:28.489Z,35.20
2022-08-10T11:47:21.259Z,35.30
2022-08-10T11:48:53.755Z,35.67
2022-08-10T11:49:21.229Z,35.67
2022-08-10T11:50:20.221Z,35.47
2022-08-10T11:51:20.202Z,35.20
2022-08-10T11:52:20.190Z,35.10
2022-08-10T11:53:20.171Z,35.00
2022-08-10T11:54:20.171Z,34.61
2022-08-10T11:55:20.147Z,35.47
2022-08-10T11:56:20.145Z,36.75
2022-08-10T11:57:20.123Z,36.75
2022-08-10T11:58:20.114Z,36.82
2022-08-10T11:59:20.104Z,35.23
2022-08-10T12:00:20.085Z,34.62
2022-08-10T12:01:20.075Z,36.09
2022-08-10T12:02:20.168Z,33.95
2022-08-10T12:03:20.051Z,35.13
2022-08-10T12:04:20.047Z,36.11
2022-08-10T12:05:20.018Z,34.85
2022-08-10T12:06:39.299Z,35.66
2022-08-10T12:10:01.875Z,36.54
2022-08-10T12:10:07.221Z,36.36
2022-08-10T12:10:08.633Z,33.59
2022-08-10T12:10:20.960Z,33.38
2022-08-10T12:11:24.072Z,32.68
2022-08-10T12:12:19.930Z,34.42
2022-08-10T12:13:19.923Z,33.44
2022-08-10T12:14:22.513Z,31.07
2022-08-10T12:15:19.903Z,32.76
2022-08-10T12:16:19.882Z,32.48
2022-08-10T12:17:19.864Z,32.57
2022-08-10T12:18:19.857Z,33.75
2022-08-10T12:19:19.845Z,34.25
2022-08-10T12:20:19.834Z,33.26
2022-08-10T12:21:22.008Z,31.89
2022-08-10T12:22:19.808Z,33.36
2022-08-10T12:23:19.786Z,33.46
2022-08-10T12:24:19.786Z,33.65
2022-08-10T12:25:57.182Z,31.89
2022-08-10T12:26:20.748Z,33.25
2022-08-10T12:27:19.737Z,32.09
2022-08-10T12:28:19.729Z,32.59
2022-08-10T12:29:23.563Z,34.38
2022-08-10T12:30:20.699Z,33.80
2022-08-10T12:31:19.690Z,34.51
2022-08-10T12:32:25.439Z,34.84
2022-08-10T12:33:20.661Z,35.53
2022-08-10T12:34:19.662Z,37.51
2022-08-10T12:35:22.051Z,36.23
2022-08-10T12:36:20.626Z,37.81
2022-08-10T12:37:19.612Z,36.33
2022-08-10T12:38:19.603Z,36.33
2022-08-10T12:39:19.620Z,38.22
2022-08-10T12:40:36.451Z,36.15
2022-08-10T12:41:43.951Z,35.46
2022-08-10T12:43:01.548Z,37.53
2022-08-10T12:44:04.923Z,38.51
2022-08-10T12:44:20.526Z,37.41
2022-08-10T12:45:19.506Z,36.43
2022-08-10T12:46:19.496Z,35.54
2022-08-10T12:47:19.482Z,37.99
2022-08-10T12:48:19.479Z,34.34
2022-08-10T12:49:19.459Z,36.71
2022-08-10T12:50:29.961Z,37.01
2022-08-10T12:51:20.425Z,35.72
2022-08-10T12:52:19.442Z,36.11
2022-08-10T12:53:19.419Z,34.33